Clinton Corners, NY (12514)

1:38 PM EDT on July 26, 2016 (GMT -0400)
Fancor Rd | | Change Station

Elev 584 ft 41.89 °N, 73.76 °W | Updated 17 seconds ago

Partly Cloudy
Partly Cloudy
86.9 °F
Feels Like 88 °F
N
0.0
Wind Variable Wind from North
Gusts 2.0 mph

Today
High -- | Low -- °F
--% Chance of Precip.
Yesterday
High -- | Low -- °F
Precip. -- in
Pressure 29.86 in
Visibility 10.0 miles
Clouds Few 5000 ft
Heat Index 88 °F
Dew Point 63 °F
Humidity 45%
Rainfall 0.00 in
Snow Depth Not available.
5:43 AM 8:19 PM
Waning Gibbous, 53% visible
METAR KPOU 261653Z 32009KT 10SM FEW050 31/18 A2987 RMK AO2 SLP112 T03110178
Pressure 29.86 in
Visibility 10.0 miles
Clouds Few 5000 ft
Heat Index 88 °F
Dew Point 63 °F
Humidity 45%
Rainfall 0.00 in
Snow Depth Not available.
5:43 AM 8:19 PM
Waning Gibbous, 53% visible
METAR KPOU 261653Z 32009KT 10SM FEW050 31/18 A2987 RMK AO2 SLP112 T03110178

10-Day Weather Forecast

Almanac

Astronomy

Jul. 26, 2016 Rise Set
Actual Time
Civil Twilight
Nautical Twilight
Astronomical Twilight
Moon
Length of Visible Light
Length of Day
Tomorrow will be .
, % of the Moon is Illuminated

Today's Extremes

State Highs State Lows

Community

WunderPhotos

Upload Photos

1,927,648 photos uploaded!

WunderBlog® & News

Nearby

Air Quality

  Air Quality AQ Index Pollutant
Not available.

Snow Depth

Station Depth Elevation

Earthquake Activity

City Distance Mag. Time & Date
Minimum magnitude displayed is 2.5.

Coastal Water Temperatures

Place Temperature

Stations

Nearby Weather Stations

Station Location Temp. Windchill Dew Point Humidity Wind Precip. Elev Updated Type
                   

Watches & Warnings

There are currently no watches in effect.